Time;durP1;ratioP1;P1;durP2;ratioP2;P2;SDS_P1;SDS_P2;PMS_P1;PMS_P2;Temp;Humidity;BMP_temperature;BMP_pressure;BME280_temperature;BME280_humidity;BME280_pressure;Samples;Min_cycle;Max_cycle;Signal;HPM_P1;HPM_P2
2022/09/12 00:02:09;;;;;;;3.67;3.17;;;;;;;;;;5058030;28;20036;-74
2022/09/12 00:04:34;;;;;;;4.60;3.22;;;;;;;;;;5056938;28;20024;-75
2022/09/12 00:07:00;;;;;;;5.68;3.30;;;;;;;;;;5057530;28;20036;-75
2022/09/12 00:09:25;;;;;;;4.47;3.28;;;;;;;;;;5048941;28;20805;-76
2022/09/12 00:11:50;;;;;;;6.10;3.65;;;;;;;;;;5048917;28;20109;-75
2022/09/12 00:14:17;;;;;;;3.45;2.80;;;;;;;;;;5041231;28;20032;-74
2022/09/12 00:16:42;;;;;;;4.90;3.50;;;;;;;;;;5058130;28;20040;-75
2022/09/12 00:19:08;;;;;;;4.15;3.75;;;;;;;;;;5056806;28;20399;-74
2022/09/12 00:21:34;;;;;;;3.80;3.50;;;;;;;;;;5057432;28;20211;-73
2022/09/12 00:24:00;;;;;;;4.43;4.00;;;;;;;;;;5059220;28;20020;-75
2022/09/12 00:26:25;;;;;;;6.82;4.65;;;;;;;;;;5058418;28;20020;-74
2022/09/12 00:28:51;;;;;;;5.90;4.60;;;;;;;;;;5056409;28;20028;-74
2022/09/12 00:31:18;;;;;;;5.22;3.95;;;;;;;;;;5056125;28;20673;-74
2022/09/12 00:33:44;;;;;;;4.88;4.40;;;;;;;;;;5057130;28;20028;-75
2022/09/12 00:36:14;;;;;;;4.03;3.70;;;;;;;;;;5057722;28;20028;-73
2022/09/12 00:38:40;;;;;;;5.18;3.70;;;;;;;;;;5056029;28;20028;-75
2022/09/12 00:41:15;;;;;;;3.92;3.63;;;;;;;;;;5057636;28;20028;-74
2022/09/12 00:43:45;;;;;;;4.25;3.83;;;;;;;;;;5057606;28;20045;-75
2022/09/12 00:46:15;;;;;;;4.53;4.13;;;;;;;;;;5056768;28;20052;-74
2022/09/12 00:48:43;;;;;;;4.72;4.15;;;;;;;;;;5040499;28;20027;-75
2022/09/12 00:51:08;;;;;;;6.50;5.60;;;;;;;;;;5057757;28;20024;-74
2022/09/12 00:53:34;;;;;;;6.05;5.45;;;;;;;;;;5057696;28;20391;-75
2022/09/12 00:55:59;;;;;;;5.95;4.32;;;;;;;;;;5061311;28;20036;-75
2022/09/12 00:58:27;;;;;;;4.65;4.35;;;;;;;;;;5062621;28;20028;-76
2022/09/12 01:00:53;;;;;;;5.55;5.05;;;;;;;;;;5060225;28;20025;-76
2022/09/12 01:03:20;;;;;;;6.65;4.35;;;;;;;;;;5060777;28;20028;-75
2022/09/12 01:05:52;;;;;;;5.63;4.70;;;;;;;;;;5061346;28;20024;-76
2022/09/12 01:08:18;;;;;;;5.10;4.60;;;;;;;;;;5049091;28;20475;-76
2022/09/12 01:10:43;;;;;;;6.43;4.75;;;;;;;;;;5056342;28;20033;-76
2022/09/12 01:13:10;;;;;;;5.38;4.28;;;;;;;;;;5060665;28;20028;-76
2022/09/12 01:15:36;;;;;;;4.55;4.10;;;;;;;;;;5060373;28;20039;-77
2022/09/12 01:18:20;;;;;;;4.75;4.30;;;;;;;;;;5061485;28;20482;-75
2022/09/12 01:21:03;;;;;;;6.35;4.85;;;;;;;;;;5058095;28;20363;-75
2022/09/12 01:23:30;;;;;;;4.47;4.18;;;;;;;;;;5060417;28;20091;-74
2022/09/12 01:25:55;;;;;;;5.22;4.45;;;;;;;;;;5059357;28;20028;-76
2022/09/12 01:28:35;;;;;;;5.40;4.80;;;;;;;;;;5063103;28;20027;-75
2022/09/12 01:31:04;;;;;;;4.50;4.13;;;;;;;;;;5061073;28;20385;-75
2022/09/12 01:33:43;;;;;;;4.13;3.80;;;;;;;;;;5060201;28;20530;-75
2022/09/12 01:36:08;;;;;;;5.10;4.70;;;;;;;;;;5061608;28;20033;-74
2022/09/12 01:38:46;;;;;;;6.20;4.55;;;;;;;;;;5062765;28;20031;-75
2022/09/12 01:41:20;;;;;;;5.78;3.97;;;;;;;;;;5060428;28;20017;-74
2022/09/12 01:43:49;;;;;;;5.03;4.07;;;;;;;;;;5059570;28;20105;-74
2022/09/12 01:46:30;;;;;;;4.20;3.80;;;;;;;;;;5059571;28;20024;-74
2022/09/12 01:49:21;;;;;;;5.97;4.57;;;;;;;;;;5044711;28;20025;-75
2022/09/12 01:51:54;;;;;;;4.60;4.20;;;;;;;;;;5053260;28;20041;-74
2022/09/12 01:54:32;;;;;;;4.78;3.83;;;;;;;;;;5059880;28;20494;-74
2022/09/12 01:57:00;;;;;;;8.77;5.20;;;;;;;;;;5060856;28;20024;-76
2022/09/12 01:59:29;;;;;;;6.10;5.57;;;;;;;;;;5062066;28;20020;-75
2022/09/12 02:01:57;;;;;;;9.40;5.47;;;;;;;;;;5048233;28;20040;-75
2022/09/12 02:04:30;;;;;;;6.30;4.65;;;;;;;;;;5055045;28;20033;-76
2022/09/12 02:06:55;;;;;;;5.65;5.10;;;;;;;;;;5059815;28;20457;-74
2022/09/12 02:09:41;;;;;;;6.97;5.85;;;;;;;;;;5059001;28;20020;-75
2022/09/12 02:12:08;;;;;;;7.30;5.78;;;;;;;;;;5036739;28;20097;-75
2022/09/12 02:14:36;;;;;;;7.07;6.38;;;;;;;;;;5058705;28;20028;-75
2022/09/12 02:17:13;;;;;;;8.60;6.15;;;;;;;;;;5047076;28;20674;-75
2022/09/12 02:20:05;;;;;;;7.28;5.75;;;;;;;;;;5040635;28;20029;-75
2022/09/12 02:22:34;;;;;;;6.93;6.20;;;;;;;;;;5055816;28;20083;-74
2022/09/12 02:25:00;;;;;;;7.57;5.47;;;;;;;;;;5054326;28;20440;-75
2022/09/12 02:27:29;;;;;;;5.03;4.15;;;;;;;;;;5046030;28;20103;-74
2022/09/12 02:29:54;;;;;;;6.72;3.50;;;;;;;;;;5060851;28;20024;-75
2022/09/12 02:32:22;;;;;;;4.35;3.95;;;;;;;;;;5060032;28;20039;-74
2022/09/12 02:34:51;;;;;;;4.30;3.88;;;;;;;;;;5040832;28;20173;-75
2022/09/12 02:37:26;;;;;;;7.63;4.35;;;;;;;;;;5060392;28;20082;-74
2022/09/12 02:39:53;;;;;;;5.22;4.55;;;;;;;;;;5053451;28;20024;-75
2022/09/12 02:42:19;;;;;;;5.88;5.07;;;;;;;;;;5038660;28;20032;-75
2022/09/12 02:44:44;;;;;;;8.77;4.93;;;;;;;;;;5046445;28;20055;-75
2022/09/12 02:47:13;;;;;;;5.45;5.05;;;;;;;;;;5040341;28;20025;-76
2022/09/12 02:49:39;;;;;;;5.70;5.22;;;;;;;;;;5045848;28;20028;-75
2022/09/12 02:52:04;;;;;;;5.60;5.10;;;;;;;;;;5062070;28;20554;-75
2022/09/12 02:54:30;;;;;;;5.85;5.35;;;;;;;;;;5060344;28;20118;-76
2022/09/12 02:56:55;;;;;;;6.97;5.78;;;;;;;;;;5061874;28;20424;-75
2022/09/12 02:59:21;;;;;;;7.50;6.00;;;;;;;;;;5059451;28;20497;-74
2022/09/12 03:01:58;;;;;;;8.15;7.22;;;;;;;;;;5059233;28;20032;-76
2022/09/12 03:04:39;;;;;;;6.30;5.57;;;;;;;;;;5058667;28;20109;-76
2022/09/12 03:07:13;;;;;;;5.72;5.20;;;;;;;;;;5058356;28;20036;-74
2022/09/12 03:09:45;;;;;;;9.00;5.57;;;;;;;;;;5052320;28;20082;-75
2022/09/12 03:12:29;;;;;;;8.23;6.97;;;;;;;;;;5049590;28;20117;-74
2022/09/12 03:15:18;;;;;;;13.93;11.10;;;;;;;;;;5061324;28;20032;-76
2022/09/12 03:17:50;;;;;;;12.63;9.30;;;;;;;;;;5055783;28;20086;-75
2022/09/12 03:20:15;;;;;;;13.00;9.88;;;;;;;;;;5048397;28;20758;-74
2022/09/12 03:22:41;;;;;;;10.95;8.60;;;;;;;;;;5053356;28;20028;-76
2022/09/12 03:25:06;;;;;;;9.10;6.85;;;;;;;;;;5057738;28;20067;-75
2022/09/12 03:27:39;;;;;;;7.43;6.70;;;;;;;;;;5060926;28;20052;-75
2022/09/12 03:30:05;;;;;;;8.63;6.53;;;;;;;;;;5060000;28;20382;-74
2022/09/12 03:33:00;;;;;;;8.23;7.35;;;;;;;;;;5053246;28;20031;-75
2022/09/12 03:35:43;;;;;;;9.45;7.18;;;;;;;;;;4952020;28;20046;-75
2022/09/12 03:38:09;;;;;;;6.97;6.32;;;;;;;;;;4960086;28;20054;-75
2022/09/12 03:40:35;;;;;;;8.27;6.00;;;;;;;;;;4958551;28;20157;-74
2022/09/12 03:43:00;;;;;;;5.70;5.20;;;;;;;;;;4958745;28;20051;-75
2022/09/12 03:45:25;;;;;;;6.72;6.07;;;;;;;;;;4956255;28;20049;-75
2022/09/12 03:47:51;;;;;;;7.18;5.40;;;;;;;;;;4955066;28;20035;-75
2022/09/12 03:50:16;;;;;;;7.20;6.50;;;;;;;;;;4955865;28;20117;-74
2022/09/12 03:52:42;;;;;;;10.80;7.97;;;;;;;;;;4958367;28;20924;-74
2022/09/12 03:55:07;;;;;;;8.75;6.88;;;;;;;;;;4957630;28;20041;-74
2022/09/12 03:57:32;;;;;;;8.50;6.57;;;;;;;;;;4957759;28;20030;-75
2022/09/12 03:59:58;;;;;;;7.82;7.05;;;;;;;;;;4957670;28;20034;-75
2022/09/12 04:02:23;;;;;;;6.72;6.13;;;;;;;;;;4943964;28;20039;-76
2022/09/12 04:04:49;;;;;;;6.43;5.88;;;;;;;;;;4940605;28;20039;-75
2022/09/12 04:07:15;;;;;;;6.35;5.70;;;;;;;;;;4944856;28;21302;-75
2022/09/12 04:09:40;;;;;;;14.05;10.23;;;;;;;;;;4947582;28;20454;-75
2022/09/12 04:12:05;;;;;;;25.52;18.75;;;;;;;;;;5002915;28;20564;-74
2022/09/12 04:14:31;;;;;;;28.77;20.88;;;;;;;;;;5021638;28;20043;-73
2022/09/12 04:16:56;;;;;;;30.65;18.98;;;;;;;;;;5042125;28;20028;-74
2022/09/12 04:19:22;;;;;;;16.92;10.48;;;;;;;;;;5046737;28;20024;-74
2022/09/12 04:21:48;;;;;;;9.18;8.07;;;;;;;;;;5036554;28;20020;-75
2022/09/12 04:24:13;;;;;;;8.80;7.95;;;;;;;;;;5037926;28;20035;-74
2022/09/12 04:26:38;;;;;;;9.90;7.88;;;;;;;;;;5057651;28;20436;-75
2022/09/12 04:29:04;;;;;;;7.57;6.78;;;;;;;;;;5056860;28;20029;-74
2022/09/12 04:31:29;;;;;;;7.85;6.78;;;;;;;;;;5058553;28;20036;-75
2022/09/12 04:33:55;;;;;;;8.05;7.22;;;;;;;;;;5035351;28;20044;-76
2022/09/12 04:36:21;;;;;;;9.32;6.25;;;;;;;;;;5056949;28;20063;-75
2022/09/12 04:38:47;;;;;;;7.53;6.72;;;;;;;;;;5038370;28;20506;-75
2022/09/12 04:41:13;;;;;;;7.68;6.88;;;;;;;;;;5051976;28;20028;-73
2022/09/12 04:43:39;;;;;;;7.65;6.95;;;;;;;;;;5044014;28;20052;-74
2022/09/12 04:46:05;;;;;;;9.73;8.70;;;;;;;;;;5056415;28;20090;-74
2022/09/12 04:48:30;;;;;;;13.30;7.53;;;;;;;;;;5049796;28;20025;-74
2022/09/12 04:51:04;;;;;;;9.43;7.85;;;;;;;;;;5044774;28;20060;-75
2022/09/12 04:53:30;;;;;;;13.65;7.97;;;;;;;;;;5055396;28;20037;-73
2022/09/12 04:56:00;;;;;;;8.52;7.60;;;;;;;;;;5041878;28;20032;-76
2022/09/12 04:58:25;;;;;;;11.02;9.30;;;;;;;;;;5033387;28;20039;-75
2022/09/12 05:00:51;;;;;;;13.38;11.02;;;;;;;;;;5032805;28;20405;-72
2022/09/12 05:03:17;;;;;;;10.68;9.55;;;;;;;;;;5036249;28;20024;-74
2022/09/12 05:05:42;;;;;;;9.63;8.88;;;;;;;;;;5035708;28;20021;-76
2022/09/12 05:08:07;;;;;;;10.30;9.25;;;;;;;;;;5034304;28;20598;-73
2022/09/12 05:10:33;;;;;;;10.50;9.43;;;;;;;;;;5037267;28;20040;-73
2022/09/12 05:12:58;;;;;;;11.27;10.27;;;;;;;;;;5036207;28;20040;-74
2022/09/12 05:15:24;;;;;;;10.68;9.63;;;;;;;;;;5037371;28;20025;-74
2022/09/12 05:17:49;;;;;;;11.05;10.13;;;;;;;;;;5038206;28;20128;-74
2022/09/12 05:20:16;;;;;;;12.00;10.75;;;;;;;;;;5042082;28;20115;-74
2022/09/12 05:22:41;;;;;;;11.88;10.68;;;;;;;;;;5057717;28;20115;-73
2022/09/12 05:25:07;;;;;;;11.63;10.60;;;;;;;;;;5056414;28;20107;-74
2022/09/12 05:27:32;;;;;;;13.68;12.48;;;;;;;;;;5057607;28;20031;-74
2022/09/12 05:29:58;;;;;;;14.38;12.98;;;;;;;;;;5051402;28;20484;-73
2022/09/12 05:32:23;;;;;;;14.80;13.52;;;;;;;;;;5040077;28;20025;-72
2022/09/12 05:34:49;;;;;;;14.13;12.82;;;;;;;;;;5039798;28;20036;-73
2022/09/12 05:37:15;;;;;;;12.98;11.88;;;;;;;;;;5036757;28;20498;-73
2022/09/12 05:39:40;;;;;;;12.02;11.02;;;;;;;;;;5051865;28;20138;-71
2022/09/12 05:42:05;;;;;;;11.02;9.98;;;;;;;;;;5061106;28;20351;-72
2022/09/12 05:44:32;;;;;;;10.60;9.73;;;;;;;;;;5060496;28;20137;-71
2022/09/12 05:46:57;;;;;;;10.52;9.63;;;;;;;;;;5061533;28;20025;-72
2022/09/12 05:49:23;;;;;;;10.73;9.63;;;;;;;;;;5055373;28;20024;-73
2022/09/12 05:51:49;;;;;;;12.40;11.27;;;;;;;;;;5047950;28;20994;-73
2022/09/12 05:54:16;;;;;;;10.65;9.63;;;;;;;;;;5060115;28;20024;-71
2022/09/12 05:56:43;;;;;;;10.02;9.07;;;;;;;;;;5060257;28;20454;-73
2022/09/12 05:59:16;;;;;;;11.77;10.68;;;;;;;;;;5059924;28;20036;-73
2022/09/12 06:01:41;;;;;;;11.63;10.40;;;;;;;;;;5059424;28;20028;-74
2022/09/12 06:04:07;;;;;;;11.13;9.30;;;;;;;;;;5061033;28;20032;-72
2022/09/12 06:06:35;;;;;;;11.55;9.30;;;;;;;;;;5060461;28;20066;-71
2022/09/12 06:09:01;;;;;;;11.18;10.07;;;;;;;;;;5060999;28;20402;-70
2022/09/12 06:11:27;;;;;;;11.18;10.05;;;;;;;;;;5060615;28;21273;-71
2022/09/12 06:13:55;;;;;;;10.00;9.23;;;;;;;;;;5059600;28;20402;-72
2022/09/12 06:16:21;;;;;;;10.63;9.63;;;;;;;;;;5059942;28;20028;-71
2022/09/12 06:18:53;;;;;;;11.20;10.23;;;;;;;;;;5058778;28;20021;-72
2022/09/12 06:21:19;;;;;;;14.15;12.75;;;;;;;;;;5039463;28;20033;-75
2022/09/12 06:23:47;;;;;;;12.48;11.07;;;;;;;;;;5044569;28;20397;-73
2022/09/12 06:26:13;;;;;;;13.57;12.27;;;;;;;;;;5058869;28;20033;-72
2022/09/12 06:28:39;;;;;;;15.75;14.15;;;;;;;;;;5051158;28;20021;-72
2022/09/12 06:31:10;;;;;;;15.40;14.02;;;;;;;;;;5038421;28;20119;-72
2022/09/12 06:33:36;;;;;;;13.05;11.77;;;;;;;;;;5036903;28;20364;-72
2022/09/12 06:36:03;;;;;;;13.30;12.20;;;;;;;;;;5035047;28;20028;-73
2022/09/12 06:38:29;;;;;;;14.77;13.48;;;;;;;;;;5034830;28;20028;-74
2022/09/12 06:40:54;;;;;;;14.43;13.18;;;;;;;;;;5034828;28;20451;-72
2022/09/12 06:43:20;;;;;;;14.40;13.02;;;;;;;;;;5036854;28;20048;-72
2022/09/12 06:45:48;;;;;;;15.05;13.85;;;;;;;;;;5037240;28;20166;-74
2022/09/12 06:48:14;;;;;;;14.33;13.13;;;;;;;;;;5038452;28;20554;-72
2022/09/12 06:50:40;;;;;;;15.52;14.18;;;;;;;;;;5034344;28;20088;-72
2022/09/12 06:53:05;;;;;;;14.77;13.57;;;;;;;;;;5033910;28;20102;-73
2022/09/12 06:55:31;;;;;;;14.00;12.80;;;;;;;;;;5035647;28;20405;-73
2022/09/12 06:57:56;;;;;;;12.88;11.65;;;;;;;;;;5036928;28;20033;-72
2022/09/12 07:00:23;;;;;;;13.70;12.48;;;;;;;;;;5039089;28;20484;-73
2022/09/12 07:02:52;;;;;;;14.05;12.75;;;;;;;;;;5029805;28;20044;-73
2022/09/12 07:05:17;;;;;;;13.20;12.10;;;;;;;;;;5036166;28;21664;-73
2022/09/12 07:07:43;;;;;;;13.80;12.60;;;;;;;;;;5030010;28;20023;-73
2022/09/12 07:10:10;;;;;;;12.93;11.93;;;;;;;;;;5039590;28;20432;-71
2022/09/12 07:12:36;;;;;;;15.10;13.65;;;;;;;;;;5037698;28;20028;-72
2022/09/12 07:15:01;;;;;;;14.40;13.10;;;;;;;;;;5040293;28;20051;-73
2022/09/12 07:17:26;;;;;;;15.77;14.52;;;;;;;;;;5058268;28;20082;-73
2022/09/12 07:19:52;;;;;;;15.88;14.50;;;;;;;;;;5041360;28;20440;-73
2022/09/12 07:22:17;;;;;;;13.02;11.93;;;;;;;;;;5038219;28;20039;-72
2022/09/12 07:24:44;;;;;;;12.55;11.57;;;;;;;;;;5060020;28;20099;-72
2022/09/12 07:27:10;;;;;;;13.00;11.93;;;;;;;;;;5047486;28;20016;-72
2022/09/12 07:29:35;;;;;;;12.15;11.25;;;;;;;;;;5039186;28;20017;-72
2022/09/12 07:32:01;;;;;;;13.10;12.10;;;;;;;;;;5047303;28;20032;-71
2022/09/12 07:34:26;;;;;;;10.52;9.73;;;;;;;;;;5045366;28;20151;-74
2022/09/12 07:36:51;;;;;;;11.57;10.63;;;;;;;;;;5051179;28;20374;-73
2022/09/12 07:39:17;;;;;;;11.13;10.32;;;;;;;;;;5045394;28;20013;-72
2022/09/12 07:41:42;;;;;;;11.80;10.90;;;;;;;;;;5037523;28;20379;-72
2022/09/12 07:44:08;;;;;;;12.13;11.23;;;;;;;;;;5058101;28;20040;-73
2022/09/12 07:46:34;;;;;;;12.50;11.50;;;;;;;;;;5058262;28;20028;-72
2022/09/12 07:49:00;;;;;;;12.02;11.13;;;;;;;;;;5038942;28;20442;-72
2022/09/12 07:51:26;;;;;;;10.90;10.07;;;;;;;;;;5032184;28;22709;-72
2022/09/12 07:53:51;;;;;;;10.63;9.82;;;;;;;;;;5050886;28;20037;-72
2022/09/12 07:56:18;;;;;;;10.07;9.27;;;;;;;;;;5057457;28;20324;-73
2022/09/12 07:58:44;;;;;;;10.10;9.32;;;;;;;;;;5056016;28;20033;-72
2022/09/12 08:01:13;;;;;;;9.43;8.70;;;;;;;;;;5042020;28;20095;-70
2022/09/12 08:03:39;;;;;;;10.48;9.57;;;;;;;;;;5036182;28;20028;-71
2022/09/12 08:06:09;;;;;;;10.00;9.20;;;;;;;;;;5036759;28;20435;-71
2022/09/12 08:08:35;;;;;;;8.75;8.10;;;;;;;;;;5033413;28;20029;-71
2022/09/12 08:11:01;;;;;;;8.43;7.57;;;;;;;;;;5036352;28;20399;-71
2022/09/12 08:13:27;;;;;;;7.57;7.07;;;;;;;;;;5035244;28;20034;-70
2022/09/12 08:15:56;;;;;;;8.05;7.45;;;;;;;;;;5037914;28;20037;-72
2022/09/12 08:18:21;;;;;;;8.68;8.07;;;;;;;;;;5034316;28;20515;-71
2022/09/12 08:20:46;;;;;;;7.85;7.35;;;;;;;;;;5040336;28;20039;-71
2022/09/12 08:23:12;;;;;;;7.45;6.93;;;;;;;;;;5037279;28;20029;-72
2022/09/12 08:25:37;;;;;;;7.43;6.93;;;;;;;;;;5035657;28;20351;-71
2022/09/12 08:28:02;;;;;;;6.47;5.97;;;;;;;;;;5035722;28;20028;-71
2022/09/12 08:30:28;;;;;;;6.07;5.63;;;;;;;;;;5049870;28;20408;-72
2022/09/12 08:32:53;;;;;;;5.70;5.15;;;;;;;;;;5056029;28;20042;-72
2022/09/12 08:35:19;;;;;;;5.82;5.43;;;;;;;;;;5054624;28;20717;-73
2022/09/12 08:37:44;;;;;;;4.72;4.35;;;;;;;;;;5058172;28;20032;-72
2022/09/12 08:40:14;;;;;;;5.32;4.80;;;;;;;;;;5055368;28;20078;-71
2022/09/12 08:42:40;;;;;;;5.22;4.72;;;;;;;;;;5045285;28;20033;-72
2022/09/12 08:45:14;;;;;;;4.93;4.63;;;;;;;;;;5048675;28;20029;-71
2022/09/12 08:47:42;;;;;;;4.95;4.50;;;;;;;;;;5045809;28;20025;-71
2022/09/12 08:50:08;;;;;;;4.25;3.95;;;;;;;;;;5048814;28;20044;-70
2022/09/12 08:52:33;;;;;;;4.60;4.30;;;;;;;;;;5057421;28;20020;-71
2022/09/12 08:54:59;;;;;;;4.80;4.50;;;;;;;;;;5056027;28;20432;-70
2022/09/12 08:57:25;;;;;;;4.10;3.90;;;;;;;;;;5039106;28;20028;-71
2022/09/12 08:59:51;;;;;;;3.83;3.53;;;;;;;;;;5048358;28;20025;-72
2022/09/12 09:02:23;;;;;;;4.22;3.92;;;;;;;;;;5033932;28;20031;-72
2022/09/12 09:04:56;;;;;;;3.80;3.55;;;;;;;;;;5033245;28;20020;-71
2022/09/12 09:07:21;;;;;;;4.03;3.63;;;;;;;;;;5037853;28;20108;-71
2022/09/12 09:10:08;;;;;;;3.58;3.38;;;;;;;;;;5034274;28;20552;-71
2022/09/12 09:12:43;;;;;;;3.58;3.38;;;;;;;;;;5034178;28;20052;-71
2022/09/12 09:15:20;;;;;;;3.40;3.20;;;;;;;;;;5035985;28;20439;-72
2022/09/12 09:17:48;;;;;;;3.38;3.17;;;;;;;;;;5022303;28;20388;-72
2022/09/12 09:20:32;;;;;;;3.80;3.43;;;;;;;;;;5042726;28;20137;-72
2022/09/12 09:23:04;;;;;;;3.60;3.30;;;;;;;;;;5041218;28;20029;-71
2022/09/12 09:25:32;;;;;;;3.88;3.55;;;;;;;;;;5036936;28;20031;-72
2022/09/12 09:28:03;;;;;;;3.30;3.10;;;;;;;;;;5041194;28;20059;-72
2022/09/12 09:30:28;;;;;;;3.40;3.20;;;;;;;;;;5037312;28;20442;-69
2022/09/12 09:32:55;;;;;;;3.88;3.50;;;;;;;;;;5038526;28;20025;-71
2022/09/12 09:35:23;;;;;;;4.30;3.90;;;;;;;;;;5038031;28;20032;-70
2022/09/12 09:38:00;;;;;;;4.10;3.80;;;;;;;;;;5038374;28;20028;-71
2022/09/12 09:40:41;;;;;;;4.13;3.70;;;;;;;;;;5034721;28;20016;-71
2022/09/12 09:43:15;;;;;;;3.75;3.28;;;;;;;;;;5039622;28;20080;-73
2022/09/12 09:45:41;;;;;;;3.80;3.60;;;;;;;;;;5038376;28;20087;-72
2022/09/12 09:48:09;;;;;;;4.45;4.15;;;;;;;;;;5038217;28;20444;-72
2022/09/12 09:50:35;;;;;;;3.30;3.10;;;;;;;;;;5040378;28;20369;-71
2022/09/12 09:53:02;;;;;;;3.60;3.30;;;;;;;;;;5038704;28;20033;-72
2022/09/12 09:55:31;;;;;;;4.22;3.70;;;;;;;;;;5039765;28;20452;-71
2022/09/12 09:57:56;;;;;;;4.75;4.35;;;;;;;;;;5036560;28;20025;-74
2022/09/12 10:00:30;;;;;;;5.40;5.00;;;;;;;;;;5020688;28;20029;-72
2022/09/12 10:03:08;;;;;;;4.80;4.40;;;;;;;;;;5038182;28;20111;-72
2022/09/12 10:05:37;;;;;;;3.90;3.70;;;;;;;;;;5036371;28;20039;-72
2022/09/12 10:08:05;;;;;;;5.10;4.60;;;;;;;;;;5049037;28;20348;-71
2022/09/12 10:10:31;;;;;;;5.40;5.00;;;;;;;;;;5061119;28;20031;-71
2022/09/12 10:13:06;;;;;;;4.40;4.10;;;;;;;;;;5060176;28;20029;-73
2022/09/12 10:15:33;;;;;;;5.35;4.95;;;;;;;;;;5059485;28;20064;-71
2022/09/12 10:17:58;;;;;;;4.03;3.72;;;;;;;;;;5059042;28;20831;-72
2022/09/12 10:20:30;;;;;;;4.18;3.72;;;;;;;;;;5060089;28;20028;-71
2022/09/12 10:22:57;;;;;;;4.70;4.40;;;;;;;;;;5039263;28;20040;-72
2022/09/12 10:25:24;;;;;;;4.80;4.50;;;;;;;;;;5058832;28;20020;-71
2022/09/12 10:27:54;;;;;;;4.82;4.50;;;;;;;;;;5058456;28;20020;-71
2022/09/12 10:30:23;;;;;;;5.00;4.60;;;;;;;;;;5059656;28;20049;-73
2022/09/12 10:32:49;;;;;;;5.13;4.72;;;;;;;;;;5060498;28;20452;-73
2022/09/12 10:35:15;;;;;;;5.43;4.63;;;;;;;;;;5060656;28;20051;-73
2022/09/12 10:37:48;;;;;;;5.45;4.95;;;;;;;;;;5042381;28;20439;-72
2022/09/12 10:40:43;;;;;;;4.70;4.30;;;;;;;;;;5044600;28;20035;-72
2022/09/12 10:43:25;;;;;;;5.00;4.60;;;;;;;;;;4980289;28;20053;-71
2022/09/12 10:45:51;;;;;;;5.10;4.70;;;;;;;;;;4980766;28;20044;-73
2022/09/12 10:48:31;;;;;;;4.97;4.68;;;;;;;;;;4980659;28;20038;-72
2022/09/12 10:51:00;;;;;;;4.63;4.32;;;;;;;;;;4977672;28;20046;-72
2022/09/12 10:53:31;;;;;;;4.70;4.30;;;;;;;;;;4976481;28;20050;-72
2022/09/12 10:56:02;;;;;;;4.47;4.05;;;;;;;;;;4981137;28;20466;-72
2022/09/12 10:58:47;;;;;;;4.43;4.03;;;;;;;;;;4979569;28;20042;-73
2022/09/12 11:01:24;;;;;;;3.83;3.45;;;;;;;;;;4978327;28;20461;-73
2022/09/12 11:03:52;;;;;;;3.40;3.20;;;;;;;;;;4980441;28;20124;-72
2022/09/12 11:06:20;;;;;;;3.67;3.38;;;;;;;;;;4979752;28;20198;-72
2022/09/12 11:08:45;;;;;;;3.60;3.30;;;;;;;;;;4980085;28;20113;-74
2022/09/12 11:11:18;;;;;;;3.47;3.25;;;;;;;;;;4981789;28;20129;-73
2022/09/12 11:13:43;;;;;;;3.88;3.67;;;;;;;;;;4970915;28;20073;-72
2022/09/12 11:16:09;;;;;;;4.25;3.92;;;;;;;;;;4969671;28;20117;-71
2022/09/12 11:18:43;;;;;;;3.92;3.63;;;;;;;;;;4978221;28;20038;-72
2022/09/12 11:21:21;;;;;;;3.78;3.47;;;;;;;;;;5039632;28;20456;-72
2022/09/12 11:23:52;;;;;;;4.50;4.10;;;;;;;;;;5057737;28;20032;-73
2022/09/12 11:26:18;;;;;;;4.28;3.67;;;;;;;;;;5053713;28;20082;-73
2022/09/12 11:28:56;;;;;;;3.58;3.38;;;;;;;;;;5044630;28;20028;-73
2022/09/12 11:31:40;;;;;;;3.90;3.60;;;;;;;;;;5059149;28;20925;-75
2022/09/12 11:34:09;;;;;;;4.32;3.92;;;;;;;;;;5059831;28;20062;-73
2022/09/12 11:36:41;;;;;;;4.63;4.22;;;;;;;;;;5057256;28;20503;-73
2022/09/12 11:39:11;;;;;;;4.43;4.00;;;;;;;;;;5058981;28;20075;-73
2022/09/12 11:41:38;;;;;;;4.97;4.47;;;;;;;;;;5059982;28;20029;-73
2022/09/12 11:44:13;;;;;;;4.30;3.90;;;;;;;;;;5056652;28;20109;-73
2022/09/12 11:46:41;;;;;;;4.35;4.05;;;;;;;;;;5057116;28;20039;-72
2022/09/12 11:49:12;;;;;;;4.03;3.83;;;;;;;;;;5060051;28;20032;-72
2022/09/12 11:51:49;;;;;;;4.70;4.40;;;;;;;;;;5059991;28;20147;-74
2022/09/12 11:54:17;;;;;;;4.70;4.10;;;;;;;;;;5058992;28;20086;-72
2022/09/12 11:56:48;;;;;;;4.20;3.90;;;;;;;;;;5056792;28;20036;-72
2022/09/12 11:59:18;;;;;;;3.45;3.25;;;;;;;;;;5057940;28;20453;-71
2022/09/12 12:01:46;;;;;;;3.58;3.38;;;;;;;;;;5058372;28;20034;-74
2022/09/12 12:04:11;;;;;;;4.03;3.60;;;;;;;;;;5057195;28;20031;-74
2022/09/12 12:06:51;;;;;;;4.35;4.00;;;;;;;;;;5058459;28;20024;-73
2022/09/12 12:09:16;;;;;;;;;;;;;;;;;;5059439;28;20112;-73
2022/09/12 12:11:44;;;;;;;10.95;8.60;;;;;;;;;;5059229;28;19999;-73
2022/09/12 12:14:15;;;;;;;7.10;6.50;;;;;;;;;;5057488;28;20436;-73
2022/09/12 12:16:41;;;;;;;6.78;6.18;;;;;;;;;;5057033;28;20120;-73
2022/09/12 12:19:12;;;;;;;5.05;4.40;;;;;;;;;;5057517;28;20104;-75
2022/09/12 12:21:48;;;;;;;4.28;3.97;;;;;;;;;;5057994;28;20075;-74
2022/09/12 12:24:16;;;;;;;4.72;4.25;;;;;;;;;;5060375;28;20043;-74
2022/09/12 12:27:00;;;;;;;4.77;4.37;;;;;;;;;;5059079;28;20032;-73
2022/09/12 12:29:41;;;;;;;4.20;3.70;;;;;;;;;;5058332;28;20035;-71
2022/09/12 12:32:07;;;;;;;4.22;3.35;;;;;;;;;;5058204;28;20456;-73
2022/09/12 12:34:35;;;;;;;4.05;3.65;;;;;;;;;;5054557;28;20064;-75
2022/09/12 12:37:33;;;;;;;3.50;3.30;;;;;;;;;;5055446;28;20496;-75
2022/09/12 12:40:04;;;;;;;3.30;3.10;;;;;;;;;;5029705;28;20552;-76
2022/09/12 12:42:29;;;;;;;3.53;2.63;;;;;;;;;;5058163;28;20020;-73
2022/09/12 12:44:55;;;;;;;3.47;2.60;;;;;;;;;;5058936;28;20068;-74
2022/09/12 12:47:20;;;;;;;2.80;2.60;;;;;;;;;;5056064;28;20024;-72
2022/09/12 12:49:54;;;;;;;4.40;2.95;;;;;;;;;;5058407;28;20028;-74
2022/09/12 12:52:19;;;;;;;2.80;2.60;;;;;;;;;;5061133;28;20067;-74
2022/09/12 12:54:45;;;;;;;2.88;2.55;;;;;;;;;;5062925;28;20497;-73
2022/09/12 12:57:22;;;;;;;2.60;2.40;;;;;;;;;;5061419;28;20032;-72
2022/09/12 12:59:50;;;;;;;3.08;2.78;;;;;;;;;;5058549;28;20142;-75
2022/09/12 13:02:21;;;;;;;2.67;2.47;;;;;;;;;;5055679;28;20060;-74
2022/09/12 13:04:48;;;;;;;2.95;2.72;;;;;;;;;;5043063;28;20025;-75
2022/09/12 13:07:21;;;;;;;4.88;2.60;;;;;;;;;;5061060;28;20089;-71
2022/09/12 13:09:51;;;;;;;2.80;2.60;;;;;;;;;;5060986;28;20028;-73
2022/09/12 13:12:20;;;;;;;2.20;2.00;;;;;;;;;;5059397;28;20115;-72
2022/09/12 13:14:45;;;;;;;1.90;1.80;;;;;;;;;;5055682;28;20063;-74
2022/09/12 13:17:26;;;;;;;1.75;1.65;;;;;;;;;;5042874;28;21173;-71
2022/09/12 13:19:53;;;;;;;1.90;1.80;;;;;;;;;;5047730;28;20121;-73
2022/09/12 13:22:21;;;;;;;1.92;1.83;;;;;;;;;;5047127;28;20059;-73
2022/09/12 13:24:48;;;;;;;2.30;2.10;;;;;;;;;;5037862;28;20077;-72
2022/09/12 13:27:21;;;;;;;2.83;1.60;;;;;;;;;;5037417;28;20037;-72
2022/09/12 13:29:46;;;;;;;2.75;1.70;;;;;;;;;;5059495;28;20042;-73
2022/09/12 13:32:12;;;;;;;3.03;2.00;;;;;;;;;;5062073;28;20440;-72
2022/09/12 13:34:48;;;;;;;2.83;2.20;;;;;;;;;;5060438;28;20394;-72
2022/09/12 13:37:39;;;;;;;2.92;1.77;;;;;;;;;;5062374;28;20016;-72
2022/09/12 13:40:13;;;;;;;2.40;2.22;;;;;;;;;;5057252;28;20047;-71
2022/09/12 13:42:41;;;;;;;4.80;3.35;;;;;;;;;;5047770;28;20039;-72
2022/09/12 13:45:18;;;;;;;2.28;1.98;;;;;;;;;;5040990;28;20025;-73
2022/09/12 13:47:44;;;;;;;3.30;2.40;;;;;;;;;;5038680;28;20437;-72
2022/09/12 13:50:23;;;;;;;3.33;2.63;;;;;;;;;;5054515;28;20027;-72
2022/09/12 13:52:50;;;;;;;2.25;2.05;;;;;;;;;;5033127;28;20028;-73
2022/09/12 13:55:29;;;;;;;2.30;2.10;;;;;;;;;;5051827;28;20048;-73
2022/09/12 13:58:04;;;;;;;2.00;1.90;;;;;;;;;;5041766;28;20033;-73
2022/09/12 14:00:31;;;;;;;2.00;1.80;;;;;;;;;;5038986;28;20048;-74
2022/09/12 14:05:43;;;;;;;1.80;1.70;;;;;;;;;;5041717;28;20074;-71
2022/09/12 14:08:10;;;;;;;2.35;1.90;;;;;;;;;;5037652;28;20348;-76
2022/09/12 14:10:38;;;;;;;1.98;1.88;;;;;;;;;;5054248;28;20339;-74
2022/09/12 14:13:10;;;;;;;2.10;1.90;;;;;;;;;;5046971;28;20052;-72
2022/09/12 14:15:36;;;;;;;2.97;1.98;;;;;;;;;;5045197;28;20036;-71
2022/09/12 14:18:03;;;;;;;1.92;1.83;;;;;;;;;;5057715;28;20039;-73
2022/09/12 14:20:31;;;;;;;5.80;4.32;;;;;;;;;;5060044;28;20404;-70
2022/09/12 14:22:58;;;;;;;7.15;5.03;;;;;;;;;;5059092;28;20035;-72
2022/09/12 14:25:24;;;;;;;5.65;3.80;;;;;;;;;;5060212;28;20443;-72
2022/09/12 14:27:52;;;;;;;5.20;4.15;;;;;;;;;;5057055;28;20111;-73
2022/09/12 14:30:18;;;;;;;4.43;3.47;;;;;;;;;;5059650;28;20029;-72
2022/09/12 14:33:00;;;;;;;4.82;4.20;;;;;;;;;;5046772;28;20044;-71
2022/09/12 14:35:25;;;;;;;5.60;4.50;;;;;;;;;;5036068;28;20451;-72
2022/09/12 14:37:51;;;;;;;3.90;3.40;;;;;;;;;;5037178;28;20036;-73
2022/09/12 14:40:21;;;;;;;5.18;2.60;;;;;;;;;;5042512;28;20480;-74
2022/09/12 14:42:48;;;;;;;2.93;2.70;;;;;;;;;;4990253;28;1286950;-73
2022/09/12 14:45:26;;;;;;;6.20;4.05;;;;;;;;;;5037423;28;20038;-73
2022/09/12 14:47:52;;;;;;;3.00;2.53;;;;;;;;;;5041255;28;20032;-74
2022/09/12 14:50:28;;;;;;;2.00;1.90;;;;;;;;;;5037228;28;20091;-71
2022/09/12 14:53:19;;;;;;;2.25;2.05;;;;;;;;;;5037381;28;20028;-73